Time;durP1;ratioP1;P1;durP2;ratioP2;P2;SDS_P1;SDS_P2;PMS_P1;PMS_P2;Temp;Humidity;BMP_temperature;BMP_pressure;BME280_temperature;BME280_humidity;BME280_pressure;Samples;Min_cycle;Max_cycle;Signal;HPM_P1;HPM_P2
2023/09/21 00:04:09;;;;;;;2.97;1.30;;;;;;;20.43;55.73;99584.59;7553239;33;35937;-77
2023/09/21 00:08:26;;;;;;;2.35;1.45;;;;;;;20.33;55.99;99577.53;7553151;33;40286;-78
2023/09/21 00:12:43;;;;;;;3.22;1.80;;;;;;;20.59;53.18;99568.09;7553206;33;40828;-78
2023/09/21 00:17:00;;;;;;;3.25;1.83;;;;;;;20.51;52.76;99557.97;7553311;33;35854;-78
2023/09/21 00:21:16;;;;;;;4.50;2.05;;;;;;;20.47;53.62;99566.13;7552907;33;36998;-78
2023/09/21 00:25:33;;;;;;;2.75;1.65;;;;;;;20.41;55.63;99568.31;7552487;33;39417;-78
2023/09/21 00:29:49;;;;;;;4.93;2.00;;;;;;;20.29;57.22;99568.28;7552735;33;39789;-78
2023/09/21 00:34:05;;;;;;;3.78;2.03;;;;;;;20.18;57.73;99576.22;7552229;33;38039;-78
2023/09/21 00:38:24;;;;;;;3.08;1.90;;;;;;;20.18;58.32;99572.63;7552467;33;37982;-77
2023/09/21 00:42:42;;;;;;;4.65;1.92;;;;;;;20.21;57.86;99583.03;7553709;33;38374;-78
2023/09/21 00:46:59;;;;;;;3.78;1.80;;;;;;;20.34;57.30;99570.03;7555927;33;41384;-77
2023/09/21 00:51:16;;;;;;;3.80;1.50;;;;;;;20.43;56.14;99567.97;7555846;33;37887;-77
2023/09/21 00:55:39;;;;;;;3.00;1.50;;;;;;;20.42;53.60;99555.28;7554684;33;37045;-77
2023/09/21 00:59:57;;;;;;;4.28;1.50;;;;;;;20.48;51.71;99559.44;7554775;33;39727;-76
2023/09/21 01:04:13;;;;;;;7.60;2.00;;;;;;;20.35;50.83;99555.03;7555547;33;39763;-78
2023/09/21 01:08:31;;;;;;;1.48;1.37;;;;;;;20.52;50.38;99551.25;7555448;33;38800;-78
2023/09/21 01:12:51;;;;;;;4.68;1.60;;;;;;;20.43;50.25;99551.37;7555553;33;37271;-78
2023/09/21 01:17:07;;;;;;;6.00;1.65;;;;;;;20.23;52.56;99553.03;7542994;33;39448;-76
2023/09/21 01:21:35;;;;;;;3.37;1.58;;;;;;;20.11;51.32;99550.25;7555467;33;40066;-78
2023/09/21 01:25:52;;;;;;;2.62;1.50;;;;;;;20.39;50.78;99547.69;7555589;33;38773;-78
2023/09/21 01:30:12;;;;;;;9.73;1.60;;;;;;;20.12;51.23;99549.13;7555437;33;37703;-78
2023/09/21 01:34:28;;;;;;;6.37;1.85;;;;;;;20.37;50.42;99533.34;7555477;33;39372;-78
2023/09/21 01:38:45;;;;;;;4.60;1.40;;;;;;;20.52;50.06;99537.41;7555288;33;40120;-78
2023/09/21 01:43:06;;;;;;;3.50;1.50;;;;;;;20.33;51.18;99541.53;7555301;33;37934;-78
2023/09/21 01:47:22;;;;;;;3.87;1.77;;;;;;;19.89;54.87;99543.97;7555342;33;38008;-78
2023/09/21 01:51:38;;;;;;;3.45;1.75;;;;;;;19.76;54.15;99529.28;7555049;33;40093;-78
2023/09/21 01:55:55;;;;;;;3.67;1.62;;;;;;;20.04;52.26;99525.91;7554532;33;40699;-78
2023/09/21 02:00:35;;;;;;;2.80;1.60;;;;;;;20.32;51.14;99517.78;7554845;33;37716;-78
2023/09/21 02:04:48;;;;;;;7.95;1.80;;;;;;;20.00;52.19;99517.47;7529261;33;38259;-78
2023/09/21 02:09:05;;;;;;;4.25;1.60;;;;;;;20.09;52.23;99522.91;7531780;33;40079;-77
2023/09/21 02:13:21;;;;;;;3.28;1.50;;;;;;;19.98;53.90;99521.75;7554548;33;40897;-77
2023/09/21 02:17:39;;;;;;;7.05;1.70;;;;;;;19.96;53.48;99524.84;7555063;33;38102;-78
2023/09/21 02:21:56;;;;;;;4.20;1.70;;;;;;;19.89;52.55;99517.09;7555288;33;37709;-77
2023/09/21 02:26:12;;;;;;;2.47;1.62;;;;;;;19.90;52.32;99498.53;7554818;33;40131;-78
2023/09/21 02:30:32;;;;;;;3.90;1.67;;;;;;;20.03;51.44;99499.41;7554693;33;39996;-78
2023/09/21 02:34:48;;;;;;;2.60;1.50;;;;;;;19.89;52.17;99500.50;7541642;33;38679;-78
2023/09/21 02:39:08;;;;;;;5.25;1.77;;;;;;;20.05;51.61;99497.09;7554401;33;37050;-77
2023/09/21 02:43:25;;;;;;;3.12;1.60;;;;;;;20.07;51.70;99492.03;7554641;33;37723;-78
2023/09/21 02:47:42;;;;;;;3.10;1.60;;;;;;;19.61;52.78;99482.84;7554397;33;41629;-75
2023/09/21 02:51:58;;;;;;;3.97;1.50;;;;;;;19.91;52.02;99491.06;7554444;33;38121;-77
2023/09/21 02:56:19;;;;;;;4.35;1.70;;;;;;;19.80;52.24;99488.75;7554517;33;37039;-77
2023/09/21 03:00:40;;;;;;;3.60;1.60;;;;;;;19.84;52.15;99480.56;7554579;33;39083;-77
2023/09/21 03:04:57;;;;;;;5.28;1.73;;;;;;;19.91;51.99;99482.78;7553419;33;40829;-78
2023/09/21 03:09:14;;;;;;;2.15;1.55;;;;;;;19.92;52.11;99482.44;7553859;33;37635;-77
2023/09/21 03:13:30;;;;;;;5.35;2.08;;;;;;;19.93;51.91;99478.50;7554462;33;37943;-78
2023/09/21 03:17:49;;;;;;;3.90;2.00;;;;;;;19.92;51.92;99476.06;7554347;33;39052;-77
2023/09/21 03:22:06;;;;;;;3.28;1.75;;;;;;;20.06;51.46;99476.59;7554171;33;40891;-77
2023/09/21 03:26:22;;;;;;;2.47;1.80;;;;;;;19.59;54.17;99482.41;7554080;33;38796;-78
2023/09/21 03:30:41;;;;;;;3.15;1.55;;;;;;;19.82;52.81;99478.13;7553670;33;37849;-77
2023/09/21 03:34:58;;;;;;;3.30;1.87;;;;;;;19.63;53.22;99470.31;7554044;33;39358;-77
2023/09/21 03:39:17;;;;;;;8.05;1.98;;;;;;;19.79;52.44;99467.75;7553564;33;40057;-78
2023/09/21 03:43:34;;;;;;;2.45;1.52;;;;;;;19.70;52.33;99458.72;7553754;33;38786;-77
2023/09/21 03:47:55;;;;;;;6.20;1.95;;;;;;;19.88;51.88;99449.09;7553770;33;37172;-77
2023/09/21 03:52:15;;;;;;;3.37;1.77;;;;;;;19.80;52.13;99451.94;7553652;33;39102;-77
2023/09/21 03:56:36;;;;;;;5.25;1.90;;;;;;;19.70;52.32;99439.34;7553359;33;40068;-78
2023/09/21 04:00:52;;;;;;;3.50;1.80;;;;;;;19.60;52.51;99450.84;7553054;33;38045;-78
2023/09/21 04:05:08;;;;;;;15.50;2.22;;;;;;;19.68;52.20;99438.91;7553177;33;37408;-77
2023/09/21 04:09:25;;;;;;;3.50;1.75;;;;;;;19.64;52.53;99443.47;7553148;33;39208;-77
2023/09/21 04:13:41;;;;;;;3.75;1.62;;;;;;;19.61;52.63;99441.38;7553093;33;39883;-77
2023/09/21 04:17:59;;;;;;;6.65;2.60;;;;;;;19.72;52.34;99439.81;7554341;33;37958;-76
2023/09/21 04:22:15;;;;;;;3.87;1.90;;;;;;;19.64;52.49;99440.72;7556183;33;37060;-78
2023/09/21 04:26:32;;;;;;;4.82;1.95;;;;;;;19.69;52.14;99437.72;7556329;33;39512;-77
2023/09/21 04:30:49;;;;;;;4.22;1.73;;;;;;;19.61;52.48;99449.69;7556127;33;41043;-78
2023/09/21 04:35:06;;;;;;;2.28;1.60;;;;;;;19.51;52.75;99459.22;7556062;33;37955;-78
2023/09/21 04:39:23;;;;;;;4.30;1.62;;;;;;;19.75;52.49;99453.00;7556173;33;36995;-78
2023/09/21 04:43:39;;;;;;;3.47;1.83;;;;;;;19.82;52.52;99449.69;7555944;33;39120;-77
2023/09/21 04:48:01;;;;;;;3.33;1.70;;;;;;;19.77;52.57;99439.63;7555886;33;40936;-77
2023/09/21 04:52:17;;;;;;;2.25;1.50;;;;;;;19.66;52.89;99452.22;7555395;33;37930;-72
2023/09/21 04:56:34;;;;;;;6.60;1.70;;;;;;;19.79;54.03;99442.84;7555856;33;37836;-79
2023/09/21 05:00:50;;;;;;;5.50;2.00;;;;;;;19.93;52.07;99459.13;7555865;33;39652;-79
2023/09/21 05:05:07;;;;;;;4.37;1.98;;;;;;;19.88;52.06;99470.41;7555686;33;40887;-78
2023/09/21 05:09:23;;;;;;;2.12;1.77;;;;;;;19.84;52.03;99466.75;7555551;33;37893;-78
2023/09/21 05:13:40;;;;;;;5.80;1.85;;;;;;;19.67;52.64;99479.53;7555741;33;37823;-79
2023/09/21 05:17:58;;;;;;;3.58;1.87;;;;;;;20.03;51.77;99467.00;7555528;33;39157;-79
2023/09/21 05:22:15;;;;;;;3.35;1.70;;;;;;;20.10;52.42;99471.16;7555610;33;39729;-78
2023/09/21 05:26:31;;;;;;;3.70;1.45;;;;;;;19.91;53.88;99474.47;7555426;33;38436;-77
2023/09/21 05:30:47;;;;;;;3.28;1.80;;;;;;;20.02;53.25;99470.94;7554381;33;38068;-78
2023/09/21 05:35:06;;;;;;;5.30;2.30;;;;;;;19.91;53.57;99482.78;7555499;33;39453;-79
2023/09/21 05:39:23;;;;;;;4.62;1.70;;;;;;;19.80;54.23;99477.69;7555350;33;39888;-78
2023/09/21 05:43:41;;;;;;;3.30;2.42;;;;;;;19.74;54.37;99465.19;7555199;33;37900;-79
2023/09/21 05:47:57;;;;;;;3.20;1.52;;;;;;;19.70;54.25;99458.72;7555053;33;36900;-79
2023/09/21 05:52:14;;;;;;;4.37;2.03;;;;;;;19.63;55.20;99461.22;7555358;33;40119;-74
2023/09/21 05:56:33;;;;;;;5.95;1.55;;;;;;;19.79;54.00;99455.88;7555141;33;40010;-75
2023/09/21 06:00:51;;;;;;;2.05;1.58;;;;;;;19.89;53.96;99455.44;7554965;33;38121;-74
2023/09/21 06:05:10;;;;;;;2.20;1.55;;;;;;;20.05;52.77;99448.09;7554706;33;37947;-73
2023/09/21 06:09:26;;;;;;;6.75;2.15;;;;;;;20.07;52.82;99436.69;7555035;33;39258;-73
2023/09/21 06:13:42;;;;;;;6.50;2.25;;;;;;;20.08;52.07;99441.06;7554956;33;40915;-82
2023/09/21 06:18:00;;;;;;;4.10;2.10;;;;;;;20.12;51.50;99438.44;7554505;33;37718;-81
2023/09/21 06:22:16;;;;;;;2.95;1.60;;;;;;;20.05;51.93;99441.75;7541784;33;37823;-82
2023/09/21 06:26:33;;;;;;;7.62;1.85;;;;;;;20.11;51.63;99440.41;7554881;33;40274;-81
2023/09/21 06:30:51;;;;;;;4.50;1.95;;;;;;;20.35;50.89;99447.06;7554652;33;39624;-82
2023/09/21 06:35:08;;;;;;;2.90;1.80;;;;;;;20.44;50.58;99442.25;7554699;33;38113;-81
2023/09/21 06:39:25;;;;;;;5.65;2.00;;;;;;;20.49;50.22;99442.03;7554165;33;37080;-82
2023/09/21 06:43:44;;;;;;;4.80;1.83;;;;;;;20.23;51.20;99445.09;7554773;33;39380;-82
2023/09/21 06:48:01;;;;;;;4.70;2.12;;;;;;;20.36;50.70;99443.97;7554430;33;40834;-83
2023/09/21 06:52:18;;;;;;;5.30;2.05;;;;;;;20.48;50.41;99431.28;7553724;33;38079;-82
2023/09/21 06:56:34;;;;;;;2.25;1.67;;;;;;;20.36;50.77;99430.13;7554085;33;37258;-83
2023/09/21 07:00:51;;;;;;;4.22;2.25;;;;;;;20.43;50.67;99427.56;7554113;33;40075;-82
2023/09/21 07:05:07;;;;;;;5.25;1.73;;;;;;;20.76;49.85;99425.84;7553513;33;39764;-81
2023/09/21 07:09:24;;;;;;;11.52;2.17;;;;;;;21.05;49.52;99415.63;7553306;33;38018;-77
2023/09/21 07:13:42;;;;;;;9.88;2.00;;;;;;;21.16;48.82;99413.97;7553791;33;37279;-77
2023/09/21 07:17:59;;;;;;;3.50;1.65;;;;;;;21.30;48.56;99413.56;7553668;33;41647;-80
2023/09/21 07:22:16;;;;;;;7.55;1.90;;;;;;;21.48;48.21;99411.31;7553892;33;40047;-78
2023/09/21 07:26:33;;;;;;;3.28;1.80;;;;;;;21.68;47.36;99393.66;7553264;33;37822;-81
2023/09/21 07:30:52;;;;;;;5.50;1.90;;;;;;;22.20;47.18;99407.63;7553732;33;36841;-80
2023/09/21 07:35:09;;;;;;;5.62;2.20;;;;;;;22.49;45.52;99411.88;7549120;33;39057;-79
2023/09/21 07:39:28;;;;;;;3.65;2.10;;;;;;;22.76;45.35;99407.34;7553807;33;41070;-80
2023/09/21 07:43:45;;;;;;;5.53;1.77;;;;;;;22.79;46.08;99403.84;7553692;33;37919;-80
2023/09/21 07:48:01;;;;;;;7.20;2.15;;;;;;;22.97;45.66;99400.66;7553692;33;37801;-80
2023/09/21 07:52:18;;;;;;;6.72;1.90;;;;;;;23.33;45.36;99406.97;7552698;33;39435;-81
2023/09/21 07:56:36;;;;;;;4.87;2.30;;;;;;;23.75;44.92;99415.34;7553353;33;39962;-78
2023/09/21 08:00:55;;;;;;;5.62;2.40;;;;;;;24.25;43.43;99412.63;7552864;33;40413;-80
2023/09/21 08:05:12;;;;;;;4.85;2.20;;;;;;;24.43;42.84;99409.31;7552229;33;37040;-80
2023/09/21 08:09:30;;;;;;;6.15;1.90;;;;;;;24.04;43.84;99406.69;7552487;33;39293;-80
2023/09/21 08:13:48;;;;;;;3.03;2.00;;;;;;;24.30;43.48;99412.31;7549491;33;39937;-80
2023/09/21 08:18:07;;;;;;;4.43;2.10;;;;;;;24.48;42.98;99406.22;7552593;33;37925;-78
2023/09/21 08:22:26;;;;;;;3.53;1.60;;;;;;;24.73;43.27;99396.25;7552870;33;38067;-79
2023/09/21 08:26:43;;;;;;;2.30;1.60;;;;;;;24.60;43.08;99389.31;7552826;33;39351;-82
2023/09/21 08:31:00;;;;;;;5.45;1.90;;;;;;;24.37;43.84;99397.69;7552621;33;40064;-82
2023/09/21 08:35:17;;;;;;;3.40;1.80;;;;;;;24.42;43.45;99396.56;7552414;33;37971;-80
2023/09/21 08:39:33;;;;;;;2.83;1.52;;;;;;;24.41;43.09;99392.19;7552357;33;36847;-81
2023/09/21 08:43:50;;;;;;;4.93;2.20;;;;;;;24.17;43.61;99402.53;7548833;33;40218;-81
2023/09/21 08:48:09;;;;;;;3.80;2.12;;;;;;;24.30;43.30;99403.97;7548222;33;40476;-82
2023/09/21 08:52:32;;;;;;;4.75;2.20;;;;;;;23.92;44.45;99404.91;7551344;33;38054;-80
2023/09/21 08:56:55;;;;;;;5.93;2.15;;;;;;;24.04;44.26;99407.50;7551369;33;37121;-80
2023/09/21 09:01:11;;;;;;;6.40;2.45;;;;;;;23.66;45.00;99413.94;7551728;33;39132;-79
2023/09/21 09:05:28;;;;;;;5.05;2.65;;;;;;;23.73;45.06;99411.28;7553093;33;40178;-79
2023/09/21 09:09:46;;;;;;;5.37;2.37;;;;;;;23.74;44.65;99424.03;7555107;33;38055;-79
2023/09/21 09:14:03;;;;;;;5.40;2.00;;;;;;;23.02;46.61;99426.16;7553434;33;35974;-80
2023/09/21 09:18:20;;;;;;;7.43;2.50;;;;;;;23.41;45.59;99426.22;7554737;33;38897;-81
2023/09/21 09:22:38;;;;;;;4.28;2.10;;;;;;;23.22;46.32;99438.16;7554351;33;40868;-79
2023/09/21 09:26:54;;;;;;;4.62;2.30;;;;;;;23.48;46.08;99419.19;7551376;33;38075;-80
2023/09/21 09:31:18;;;;;;;6.00;2.17;;;;;;;22.93;47.57;99422.81;7554936;33;37956;-79
2023/09/21 09:35:37;;;;;;;2.83;2.15;;;;;;;22.66;48.57;99407.91;7553536;33;39507;-79
2023/09/21 09:39:55;;;;;;;6.97;2.35;;;;;;;23.11;48.43;99416.84;7554933;33;39011;-80
2023/09/21 09:44:24;;;;;;;10.10;3.92;;;;;;;23.36;47.54;99409.03;7554432;33;37717;-79
2023/09/21 09:48:43;;;;;;;8.57;3.20;;;;;;;23.41;47.49;99403.16;7553794;33;36931;-80
2023/09/21 09:53:05;;;;;;;3.58;2.08;;;;;;;22.94;48.79;99402.19;7554245;33;39338;-80
2023/09/21 09:57:22;;;;;;;7.35;2.15;;;;;;;23.47;47.10;99407.25;7553738;33;39147;-80
2023/09/21 10:01:41;;;;;;;5.00;2.30;;;;;;;23.24;48.10;99399.66;7553159;33;37851;-80
2023/09/21 10:06:00;;;;;;;4.15;2.10;;;;;;;23.54;47.66;99398.22;7537931;33;37039;-81
2023/09/21 10:10:20;;;;;;;3.87;1.70;;;;;;;23.63;47.53;99376.56;7550955;33;39350;-81
2023/09/21 10:14:45;;;;;;;3.35;1.83;;;;;;;24.02;47.27;99372.88;7550517;33;40833;-82
2023/09/21 10:19:01;;;;;;;4.15;1.92;;;;;;;23.93;47.42;99371.13;7552620;33;37910;-81
2023/09/21 10:23:18;;;;;;;8.52;2.05;;;;;;;24.09;47.24;99359.06;7553484;33;37085;-80
2023/09/21 10:27:36;;;;;;;7.80;1.90;;;;;;;23.93;48.02;99354.44;7539954;33;40125;-80
2023/09/21 10:32:04;;;;;;;4.25;2.08;;;;;;;25.08;46.29;99342.12;7553980;33;40118;-80
2023/09/21 10:36:28;;;;;;;5.78;1.92;;;;;;;25.39;44.49;99342.91;7553241;33;37717;-80
2023/09/21 10:40:45;;;;;;;6.25;2.15;;;;;;;25.88;44.02;99331.78;7554041;33;36865;-80
2023/09/21 10:45:10;;;;;;;4.85;1.95;;;;;;;25.84;42.76;99318.56;7554448;33;39302;-78
2023/09/21 10:49:33;;;;;;;4.00;1.98;;;;;;;25.95;42.62;99315.09;7554505;33;40063;-79
2023/09/21 10:53:49;;;;;;;3.83;2.28;;;;;;;25.63;43.34;99330.37;7553385;33;37601;-78
2023/09/21 10:58:06;;;;;;;3.87;2.28;;;;;;;25.48;43.76;99325.84;7554531;33;37154;-78
2023/09/21 11:02:23;;;;;;;4.10;2.08;;;;;;;25.26;44.81;99322.81;7554381;33;39562;-78
2023/09/21 11:06:40;;;;;;;7.30;2.15;;;;;;;25.39;46.23;99309.41;7554110;33;40099;-81
2023/09/21 11:10:57;;;;;;;5.65;2.00;;;;;;;25.91;45.96;99291.91;7554195;33;37665;-79
2023/09/21 11:15:16;;;;;;;4.12;2.00;;;;;;;26.26;44.52;99277.41;7554301;33;38009;-78
2023/09/21 11:19:34;;;;;;;3.85;1.98;;;;;;;26.04;42.87;99282.03;7553393;33;39588;-79
2023/09/21 11:23:50;;;;;;;4.85;1.95;;;;;;;25.27;43.57;99279.00;7554213;33;40879;-79
2023/09/21 11:28:08;;;;;;;7.30;2.03;;;;;;;25.33;43.28;99268.28;7552823;33;37866;-79
2023/09/21 11:32:27;;;;;;;6.35;2.08;;;;;;;25.10;43.57;99261.66;7554025;33;37178;-79
2023/09/21 11:36:44;;;;;;;4.07;2.67;;;;;;;25.05;43.52;99258.44;7554100;33;40187;-79
2023/09/21 11:41:01;;;;;;;6.72;2.30;;;;;;;24.58;44.78;99252.34;7553782;33;40003;-79
2023/09/21 11:45:24;;;;;;;5.70;2.78;;;;;;;24.72;44.79;99251.72;7553847;33;38056;-79
2023/09/21 11:49:42;;;;;;;6.80;2.30;;;;;;;25.15;44.27;99235.44;7553711;33;37824;-79
2023/09/21 11:54:00;;;;;;;5.95;2.62;;;;;;;25.37;44.91;99230.87;7553597;33;38352;-79
2023/09/21 11:58:17;;;;;;;6.05;2.80;;;;;;;25.83;44.65;99219.25;7552964;33;40058;-80
2023/09/21 12:02:37;;;;;;;6.45;2.42;;;;;;;26.83;41.66;99223.75;7553438;33;37836;-80
2023/09/21 12:06:57;;;;;;;7.55;2.83;;;;;;;27.43;42.12;99210.28;7552953;33;37159;-80
2023/09/21 12:11:14;;;;;;;4.47;2.50;;;;;;;27.68;39.85;99194.25;7552026;33;39351;-80
2023/09/21 12:15:30;;;;;;;3.97;2.40;;;;;;;28.22;39.12;99184.94;7553143;33;40754;-79
2023/09/21 12:19:47;;;;;;;7.03;2.40;;;;;;;29.03;37.97;99191.31;7553057;33;37685;-83
2023/09/21 12:24:04;;;;;;;11.68;2.60;;;;;;;29.00;37.94;99192.13;7553047;33;37066;-81
2023/09/21 12:28:20;;;;;;;4.00;2.28;;;;;;;29.72;36.08;99182.34;7552804;33;40149;-80
2023/09/21 12:32:38;;;;;;;5.07;2.10;;;;;;;29.81;36.35;99182.66;7552632;33;40903;-78
2023/09/21 12:36:56;;;;;;;9.63;2.45;;;;;;;30.32;35.17;99178.06;7551666;33;38024;-79
2023/09/21 12:41:14;;;;;;;5.85;2.35;;;;;;;30.04;35.86;99167.94;7553803;33;38254;-79
2023/09/21 12:45:30;;;;;;;7.40;2.37;;;;;;;30.44;35.06;99170.31;7556064;33;40205;-79
2023/09/21 12:49:47;;;;;;;5.57;2.80;;;;;;;31.06;34.22;99157.78;7556001;33;40046;-78
2023/09/21 12:54:07;;;;;;;7.70;2.35;;;;;;;29.83;35.35;99159.78;7555461;33;38631;-78
2023/09/21 12:58:23;;;;;;;5.62;2.47;;;;;;;29.98;34.94;99144.34;7555955;33;36762;-79
2023/09/21 13:02:40;;;;;;;4.30;2.50;;;;;;;29.88;34.90;99137.63;7555796;33;39450;-80
2023/09/21 13:07:02;;;;;;;10.48;2.62;;;;;;;30.10;35.02;99143.00;7540474;33;39754;-80
2023/09/21 13:11:19;;;;;;;6.68;2.70;;;;;;;30.21;35.00;99126.78;7530123;33;38038;-80
2023/09/21 13:15:36;;;;;;;10.45;2.70;;;;;;;30.69;34.44;99119.34;7529976;33;37607;-81
2023/09/21 13:19:52;;;;;;;6.20;2.65;;;;;;;31.14;33.78;99119.03;7530067;33;39385;-81
2023/09/21 13:24:10;;;;;;;6.12;2.42;;;;;;;30.82;33.47;99102.66;7530003;33;40062;-80
2023/09/21 13:28:26;;;;;;;5.40;2.47;;;;;;;30.73;34.24;99099.59;7527839;33;37840;-82
2023/09/21 13:32:42;;;;;;;5.95;3.00;;;;;;;31.35;32.79;99103.78;7529068;33;37064;-79
2023/09/21 13:36:59;;;;;;;8.57;2.80;;;;;;;32.00;31.46;99094.09;7529980;33;39140;-79
2023/09/21 13:41:16;;;;;;;6.97;2.90;;;;;;;31.81;31.10;99090.06;7527918;33;40930;-79
2023/09/21 13:45:34;;;;;;;9.05;2.90;;;;;;;30.74;32.79;99089.94;7529703;33;37905;-78
2023/09/21 13:49:51;;;;;;;7.10;2.55;;;;;;;31.24;32.46;99091.94;7523780;33;38377;-78
2023/09/21 13:54:08;;;;;;;5.80;2.47;;;;;;;31.91;31.34;99083.41;7529113;33;39350;-78
2023/09/21 13:58:24;;;;;;;8.65;2.53;;;;;;;31.85;31.54;99078.72;7528899;33;40822;-79
2023/09/21 14:02:46;;;;;;;6.15;2.78;;;;;;;32.11;30.54;99077.00;7529087;33;38722;-79
2023/09/21 14:07:03;;;;;;;6.62;2.80;;;;;;;32.34;30.27;99078.87;7555047;33;38238;-79
2023/09/21 14:11:20;;;;;;;5.70;2.53;;;;;;;32.03;31.11;99069.88;7553842;33;39243;-79
2023/09/21 14:15:36;;;;;;;9.15;2.80;;;;;;;32.46;29.61;99064.13;7554531;33;40026;-80
2023/09/21 14:19:53;;;;;;;8.52;2.40;;;;;;;32.27;30.35;99056.50;7554393;33;37959;-80
2023/09/21 14:24:09;;;;;;;8.52;2.67;;;;;;;32.57;29.73;99047.72;7554549;33;36892;-79
2023/09/21 14:28:28;;;;;;;7.12;2.42;;;;;;;32.34;30.01;99042.22;7554457;33;38087;-79
2023/09/21 14:32:46;;;;;;;4.47;2.00;;;;;;;32.26;30.67;99032.34;7554376;33;39914;-79
2023/09/21 14:37:05;;;;;;;7.28;2.60;;;;;;;32.49;29.74;99023.72;7554727;33;37800;-79
2023/09/21 14:41:21;;;;;;;7.32;2.50;;;;;;;32.66;29.08;99018.91;7553950;33;36097;-79
2023/09/21 14:45:38;;;;;;;4.70;2.30;;;;;;;32.54;29.93;99026.03;7554293;33;39300;-79
2023/09/21 14:49:56;;;;;;;4.10;2.33;;;;;;;32.64;29.46;99023.44;7553886;33;39956;-79
2023/09/21 14:54:14;;;;;;;8.88;2.78;;;;;;;32.73;29.60;99015.13;7554192;33;37982;-79
2023/09/21 14:58:32;;;;;;;5.57;2.35;;;;;;;32.60;29.50;99011.38;7554301;33;37084;-79
2023/09/21 15:02:50;;;;;;;7.40;2.42;;;;;;;31.94;30.03;99016.91;7553671;33;38262;-78
2023/09/21 15:07:07;;;;;;;7.85;2.42;;;;;;;32.22;30.32;99009.06;7554244;33;40923;-79
2023/09/21 15:11:23;;;;;;;13.40;2.80;;;;;;;32.04;29.79;99003.84;7553760;33;37861;-78
2023/09/21 15:15:40;;;;;;;3.85;2.40;;;;;;;31.74;30.03;99002.87;7553824;33;38106;-78
2023/09/21 15:19:57;;;;;;;8.13;2.72;;;;;;;31.67;30.75;98986.09;7553849;33;40214;-78
2023/09/21 15:24:13;;;;;;;9.25;2.72;;;;;;;30.95;31.67;98985.50;7553799;33;39900;-78
2023/09/21 15:28:30;;;;;;;8.73;2.80;;;;;;;31.31;31.12;98970.72;7553707;33;38041;-79
2023/09/21 15:32:46;;;;;;;11.20;2.80;;;;;;;31.11;31.14;98967.09;7553238;33;37272;-78
2023/09/21 15:37:03;;;;;;;10.30;2.65;;;;;;;30.94;31.48;98952.94;7553608;33;39568;-77
2023/09/21 15:41:19;;;;;;;6.62;2.72;;;;;;;30.88;31.13;98957.47;7553389;33;40748;-78
2023/09/21 15:45:36;;;;;;;8.15;3.00;;;;;;;30.55;31.87;98962.88;7553383;33;37863;-76
2023/09/21 15:49:52;;;;;;;8.50;2.65;;;;;;;30.47;31.96;98944.50;7553328;33;37840;-80
2023/09/21 15:54:09;;;;;;;8.25;2.75;;;;;;;31.01;31.18;98938.75;7552833;33;39450;-81
2023/09/21 15:58:26;;;;;;;10.45;3.40;;;;;;;31.92;29.55;98930.00;7553227;33;40963;-80
2023/09/21 16:02:43;;;;;;;5.18;2.58;;;;;;;31.68;29.97;98943.41;7552661;33;37817;-80
2023/09/21 16:07:00;;;;;;;11.45;2.80;;;;;;;31.72;29.91;98932.06;7552636;33;37243;-80
2023/09/21 16:11:17;;;;;;;10.63;2.67;;;;;;;31.88;29.59;98929.28;7552941;33;40142;-81
2023/09/21 16:15:34;;;;;;;7.53;2.83;;;;;;;32.36;28.83;98941.87;7554771;33;39726;-81
2023/09/21 16:19:51;;;;;;;5.75;2.47;;;;;;;31.94;29.74;98932.38;7556008;33;38930;-80
2023/09/21 16:24:08;;;;;;;8.48;2.80;;;;;;;31.36;30.70;98930.03;7555846;33;35596;-82
2023/09/21 16:28:26;;;;;;;7.25;2.70;;;;;;;30.89;31.57;98933.69;7556046;33;39978;-83
2023/09/21 16:32:43;;;;;;;6.25;2.75;;;;;;;30.24;33.27;98934.81;7555416;33;40566;-82
2023/09/21 16:37:01;;;;;;;6.95;2.80;;;;;;;29.74;33.97;98930.72;7555620;33;38082;-81
2023/09/21 16:41:18;;;;;;;6.93;2.78;;;;;;;29.16;35.21;98936.28;7555949;33;37165;-81
2023/09/21 16:45:34;;;;;;;9.25;2.83;;;;;;;28.70;35.59;98931.97;7554190;33;39407;-81
2023/09/21 16:49:52;;;;;;;8.75;3.00;;;;;;;28.40;36.17;98930.56;7555659;33;40776;-80
2023/09/21 16:54:09;;;;;;;6.55;3.25;;;;;;;28.04;36.75;98930.84;7555062;33;38738;-81
2023/09/21 16:58:25;;;;;;;8.82;3.03;;;;;;;27.55;37.52;98941.13;7555402;33;37270;-80
2023/09/21 17:02:42;;;;;;;11.85;2.65;;;;;;;27.20;38.28;98928.06;7555803;33;40332;-81
2023/09/21 17:06:59;;;;;;;7.97;2.50;;;;;;;27.26;38.26;98932.03;7555050;33;40673;-80
2023/09/21 17:11:16;;;;;;;7.07;2.67;;;;;;;26.90;39.46;98937.75;7555408;33;37881;-80
2023/09/21 17:15:34;;;;;;;12.00;3.28;;;;;;;26.88;39.92;98934.56;7555036;33;37830;-81
2023/09/21 17:19:53;;;;;;;11.45;3.25;;;;;;;26.71;40.21;98927.78;7555377;33;39364;-81
2023/09/21 17:24:09;;;;;;;12.00;2.97;;;;;;;26.68;40.33;98932.22;7554025;33;39666;-81
2023/09/21 17:28:27;;;;;;;10.95;3.10;;;;;;;26.53;40.63;98936.97;7554787;33;38757;-80
2023/09/21 17:32:44;;;;;;;8.40;2.90;;;;;;;26.40;40.91;98930.97;7555366;33;37748;-80
2023/09/21 17:37:01;;;;;;;12.95;2.72;;;;;;;26.28;41.17;98936.19;7554504;33;40692;-75
2023/09/21 17:41:17;;;;;;;11.40;3.05;;;;;;;25.98;42.00;98945.72;7554864;33;40706;-81
2023/09/21 17:45:34;;;;;;;6.00;2.92;;;;;;;26.27;41.20;98934.56;7554618;33;38045;-81
2023/09/21 17:49:50;;;;;;;7.37;2.92;;;;;;;26.03;41.72;98937.75;7554600;33;37074;-81
2023/09/21 17:54:08;;;;;;;7.75;3.05;;;;;;;25.88;41.92;98926.94;7555047;33;40188;-82
2023/09/21 17:58:24;;;;;;;6.15;2.40;;;;;;;25.94;41.56;98940.16;7554217;33;40872;-79
2023/09/21 18:02:41;;;;;;;6.90;3.08;;;;;;;26.17;40.87;98942.56;7553916;33;37989;-82
2023/09/21 18:06:58;;;;;;;9.48;2.72;;;;;;;25.86;41.45;98950.47;7541669;33;37039;-81
2023/09/21 18:11:14;;;;;;;8.00;2.87;;;;;;;25.61;41.98;98974.69;7555067;33;40215;-82
2023/09/21 18:15:32;;;;;;;5.15;2.42;;;;;;;25.89;41.64;98995.53;7554538;33;39876;-82
2023/09/21 18:19:53;;;;;;;11.98;2.83;;;;;;;24.86;45.07;99003.78;7554694;33;37928;-81
2023/09/21 18:24:09;;;;;;;7.55;2.95;;;;;;;25.37;44.13;99012.47;7554623;33;37231;-81
2023/09/21 18:28:26;;;;;;;9.35;2.90;;;;;;;25.52;43.98;99010.56;7529397;33;39452;-80
2023/09/21 18:32:42;;;;;;;8.93;3.00;;;;;;;25.55;44.78;98984.66;7528983;33;39912;-82
2023/09/21 18:36:59;;;;;;;4.28;2.72;;;;;;;25.41;44.05;98991.78;7539355;33;38754;-80
2023/09/21 18:41:17;;;;;;;7.22;2.87;;;;;;;25.43;43.71;98983.81;7554633;33;37028;-81
2023/09/21 18:45:35;;;;;;;9.90;3.25;;;;;;;25.56;43.63;98977.88;7554597;33;39135;-81
2023/09/21 18:49:55;;;;;;;5.70;2.78;;;;;;;25.30;43.97;98974.16;7554641;33;39940;-80
2023/09/21 18:54:11;;;;;;;9.95;3.00;;;;;;;25.43;43.28;98964.28;7554555;33;37945;-80
2023/09/21 18:58:28;;;;;;;11.85;2.83;;;;;;;25.14;44.12;98962.53;7554098;33;37161;-81
2023/09/21 19:02:46;;;;;;;6.65;2.55;;;;;;;25.07;44.04;98964.06;7554494;33;39197;-81
2023/09/21 19:07:02;;;;;;;11.23;3.03;;;;;;;25.25;43.55;98955.84;7553879;33;39962;-79
2023/09/21 19:11:19;;;;;;;6.85;2.62;;;;;;;25.16;43.51;98955.34;7554308;33;37761;-81
2023/09/21 19:15:36;;;;;;;6.60;2.90;;;;;;;25.29;43.12;98944.69;7554301;33;37831;-80
2023/09/21 19:19:52;;;;;;;8.13;2.87;;;;;;;25.04;43.48;98945.34;7554000;33;40505;-81
2023/09/21 19:24:09;;;;;;;7.30;2.70;;;;;;;24.82;43.67;98941.63;7554154;33;39952;-82
2023/09/21 19:28:27;;;;;;;8.50;3.28;;;;;;;24.84;43.75;98952.41;7553373;33;38557;-83
2023/09/21 19:32:43;;;;;;;8.10;3.03;;;;;;;24.70;43.94;98948.31;7553201;33;36897;-81
2023/09/21 19:37:00;;;;;;;8.45;2.75;;;;;;;24.62;44.32;98945.88;7551365;33;40238;-82
2023/09/21 19:41:17;;;;;;;6.00;2.70;;;;;;;24.90;43.62;98945.25;7552450;33;40118;-83
2023/09/21 19:45:34;;;;;;;8.35;2.42;;;;;;;24.78;44.01;98942.78;7550999;33;38750;-84
2023/09/21 19:49:50;;;;;;;11.25;2.92;;;;;;;24.84;43.78;98941.25;7551745;33;37926;-85
2023/09/21 19:54:07;;;;;;;8.05;3.30;;;;;;;24.79;44.10;98949.97;7552705;33;39435;-81
2023/09/21 19:58:23;;;;;;;9.27;3.10;;;;;;;24.65;44.61;98950.69;7543297;33;308757;-81
2023/09/21 20:02:39;;;;;;;11.20;3.25;;;;;;;24.65;44.73;98948.69;7550524;33;37655;-80
2023/09/21 20:06:56;;;;;;;9.68;3.30;;;;;;;24.57;45.00;98944.25;7551870;33;38162;-82
2023/09/21 20:11:13;;;;;;;11.07;3.67;;;;;;;24.22;46.21;98953.09;7552442;33;39441;-84